sensor_id;sensor_type;location;lat;lon;timestamp;pressure;altitude;pressure_sealevel;temperature;humidity
48976;BME280;34791;52.752;8.346;2023-03-01T00:00:11;146528.84;;;-3.64;100.00
48976;BME280;34791;52.752;8.346;2023-03-01T00:02:36;146514.81;;;-3.70;100.00
48976;BME280;34791;52.752;8.346;2023-03-01T00:05:03;146502.03;;;-3.75;100.00
48976;BME280;34791;52.752;8.346;2023-03-01T00:07:28;146525.03;;;-3.66;100.00
48976;BME280;34791;52.752;8.346;2023-03-01T00:09:54;146527.56;;;-3.65;100.00
48976;BME280;34791;52.752;8.346;2023-03-01T00:12:20;146457.28;;;-3.93;100.00
48976;BME280;34791;52.752;8.346;2023-03-01T00:14:45;146438.09;;;-4.00;100.00
48976;BME280;34791;52.752;8.346;2023-03-01T00:17:10;146463.66;;;-3.90;100.00
48976;BME280;34791;52.752;8.346;2023-03-01T00:19:36;146479.03;;;-3.84;100.00
48976;BME280;34791;52.752;8.346;2023-03-01T00:22:02;146502.03;;;-3.75;100.00
48976;BME280;34791;52.752;8.346;2023-03-01T00:24:27;146519.91;;;-3.68;100.00
48976;BME280;34791;52.752;8.346;2023-03-01T00:26:54;146509.72;;;-3.72;100.00
48976;BME280;34791;52.752;8.346;2023-03-01T00:29:22;146482.84;;;-3.83;100.00
48976;BME280;34791;52.752;8.346;2023-03-01T00:31:47;146500.78;;;-3.75;100.00
48976;BME280;34791;52.752;8.346;2023-03-01T00:34:13;146450.91;;;-3.95;100.00
48976;BME280;34791;52.752;8.346;2023-03-01T00:36:38;146407.44;;;-4.13;100.00
48976;BME280;34791;52.752;8.346;2023-03-01T00:39:07;146372.94;;;-4.26;100.00
48976;BME280;34791;52.752;8.346;2023-03-01T00:41:33;146374.22;;;-4.26;100.00
48976;BME280;34791;52.752;8.346;2023-03-01T00:43:59;146351.25;;;-4.35;100.00
48976;BME280;34791;52.752;8.346;2023-03-01T00:46:26;146381.91;;;-4.23;100.00
48976;BME280;34791;52.752;8.346;2023-03-01T00:48:51;146362.72;;;-4.30;100.00
48976;BME280;34791;52.752;8.346;2023-03-01T00:51:20;146358.91;;;-4.32;100.00
48976;BME280;34791;52.752;8.346;2023-03-01T00:53:46;146351.25;;;-4.35;100.00
48976;BME280;34791;52.752;8.346;2023-03-01T00:56:14;146369.09;;;-4.28;100.00
48976;BME280;34791;52.752;8.346;2023-03-01T00:58:40;146360.19;;;-4.31;100.00
48976;BME280;34791;52.752;8.346;2023-03-01T01:01:18;146364.00;;;-4.30;100.00
48976;BME280;34791;52.752;8.346;2023-03-01T01:03:51;146389.56;;;-4.20;100.00
48976;BME280;34791;52.752;8.346;2023-03-01T01:06:20;146374.22;;;-4.26;100.00
48976;BME280;34791;52.752;8.346;2023-03-01T01:08:46;146366.56;;;-4.29;100.00
48976;BME280;34791;52.752;8.346;2023-03-01T01:11:12;146337.16;;;-4.40;100.00
48976;BME280;34791;52.752;8.346;2023-03-01T01:13:38;146330.78;;;-4.43;100.00
48976;BME280;34791;52.752;8.346;2023-03-01T01:16:04;146320.59;;;-4.47;100.00
48976;BME280;34791;52.752;8.346;2023-03-01T01:18:30;146348.69;;;-4.36;100.00
48976;BME280;34791;52.752;8.346;2023-03-01T01:20:55;146328.25;;;-4.44;100.00
48976;BME280;34791;52.752;8.346;2023-03-01T01:23:20;146351.25;;;-4.35;100.00
48976;BME280;34791;52.752;8.346;2023-03-01T01:25:46;146338.44;;;-4.40;100.00
48976;BME280;34791;52.752;8.346;2023-03-01T01:28:11;146347.38;;;-4.36;100.00
48976;BME280;34791;52.752;8.346;2023-03-01T01:30:37;146344.81;;;-4.37;100.00
48976;BME280;34791;52.752;8.346;2023-03-01T01:33:02;146353.78;;;-4.34;100.00
48976;BME280;34791;52.752;8.346;2023-03-01T01:35:28;146361.44;;;-4.31;100.00
48976;BME280;34791;52.752;8.346;2023-03-01T01:37:53;146351.25;;;-4.35;100.00
48976;BME280;34791;52.752;8.346;2023-03-01T01:40:19;146361.44;;;-4.31;100.00
48976;BME280;34791;52.752;8.346;2023-03-01T01:42:44;146383.19;;;-4.22;100.00
48976;BME280;34791;52.752;8.346;2023-03-01T01:45:28;146360.19;;;-4.31;100.00
48976;BME280;34791;52.752;8.346;2023-03-01T01:47:57;146334.63;;;-4.42;100.00
48976;BME280;34791;52.752;8.346;2023-03-01T01:50:25;146353.78;;;-4.34;100.00
48976;BME280;34791;52.752;8.346;2023-03-01T01:52:51;146321.88;;;-4.47;100.00
48976;BME280;34791;52.752;8.346;2023-03-01T01:55:21;146272.03;;;-4.66;100.00
48976;BME280;34791;52.752;8.346;2023-03-01T01:57:52;146265.66;;;-4.69;100.00
48976;BME280;34791;52.752;8.346;2023-03-01T02:00:22;146263.09;;;-4.70;100.00
48976;BME280;34791;52.752;8.346;2023-03-01T02:02:50;146266.94;;;-4.68;100.00
48976;BME280;34791;52.752;8.346;2023-03-01T02:07:52;146205.63;;;-4.93;100.00
48976;BME280;34791;52.752;8.346;2023-03-01T02:10:18;146251.56;;;-4.75;100.00
48976;BME280;34791;52.752;8.346;2023-03-01T02:12:45;146287.34;;;-4.60;100.00
48976;BME280;34791;52.752;8.346;2023-03-01T02:15:10;146275.84;;;-4.65;100.00
48976;BME280;34791;52.752;8.346;2023-03-01T02:17:37;146256.69;;;-4.73;100.00
48976;BME280;34791;52.752;8.346;2023-03-01T02:22:50;146249.03;;;-4.76;100.00
48976;BME280;34791;52.752;8.346;2023-03-01T02:30:37;146269.47;;;-4.67;100.00
48976;BME280;34791;52.752;8.346;2023-03-01T02:33:24;146319.31;;;-4.48;100.00
48976;BME280;34791;52.752;8.346;2023-03-01T02:35:50;146351.25;;;-4.35;100.00
48976;BME280;34791;52.752;8.346;2023-03-01T02:38:17;146381.91;;;-4.23;100.00
48976;BME280;34791;52.752;8.346;2023-03-01T02:40:43;146394.66;;;-4.18;100.00
48976;BME280;34791;52.752;8.346;2023-03-01T02:43:10;146384.47;;;-4.22;100.00
48976;BME280;34791;52.752;8.346;2023-03-01T02:45:37;146353.78;;;-4.34;100.00
48976;BME280;34791;52.752;8.346;2023-03-01T02:48:03;146306.50;;;-4.53;100.00
48976;BME280;34791;52.752;8.346;2023-03-01T02:55:31;146269.47;;;-4.67;100.00
48976;BME280;34791;52.752;8.346;2023-03-01T02:57:56;146287.34;;;-4.60;100.00
48976;BME280;34791;52.752;8.346;2023-03-01T03:00:28;146279.69;;;-4.63;100.00
48976;BME280;34791;52.752;8.346;2023-03-01T03:02:56;146277.13;;;-4.64;100.00
48976;BME280;34791;52.752;8.346;2023-03-01T03:05:28;146270.75;;;-4.67;100.00
48976;BME280;34791;52.752;8.346;2023-03-01T03:07:54;146240.09;;;-4.79;100.00
48976;BME280;34791;52.752;8.346;2023-03-01T03:13:11;146292.47;;;-4.58;100.00
48976;BME280;34791;52.752;8.346;2023-03-01T03:15:38;146348.69;;;-4.36;100.00
48976;BME280;34791;52.752;8.346;2023-03-01T03:18:06;146329.50;;;-4.44;100.00
48976;BME280;34791;52.752;8.346;2023-03-01T03:20:32;146335.91;;;-4.41;100.00
48976;BME280;34791;52.752;8.346;2023-03-01T03:22:58;146315.44;;;-4.49;100.00
48976;BME280;34791;52.752;8.346;2023-03-01T03:25:24;146310.34;;;-4.51;100.00
48976;BME280;34791;52.752;8.346;2023-03-01T03:27:50;146323.13;;;-4.46;100.00
48976;BME280;34791;52.752;8.346;2023-03-01T03:30:23;146356.34;;;-4.33;100.00
48976;BME280;34791;52.752;8.346;2023-03-01T03:32:49;146358.91;;;-4.32;100.00
48976;BME280;34791;52.752;8.346;2023-03-01T03:35:24;146361.44;;;-4.31;100.00
48976;BME280;34791;52.752;8.346;2023-03-01T03:37:50;146346.09;;;-4.37;100.00
48976;BME280;34791;52.752;8.346;2023-03-01T03:43:04;146335.91;;;-4.41;100.00
48976;BME280;34791;52.752;8.346;2023-03-01T03:45:30;146318.03;;;-4.48;100.00
48976;BME280;34791;52.752;8.346;2023-03-01T03:47:58;146277.13;;;-4.64;100.00
48976;BME280;34791;52.752;8.346;2023-03-01T03:50:24;146259.28;;;-4.72;100.00
48976;BME280;34791;52.752;8.346;2023-03-01T03:52:49;146220.94;;;-4.87;100.00
48976;BME280;34791;52.752;8.346;2023-03-01T03:55:14;146241.38;;;-4.79;100.00
48976;BME280;34791;52.752;8.346;2023-03-01T03:57:45;146259.28;;;-4.72;100.00
48976;BME280;34791;52.752;8.346;2023-03-01T04:00:18;146282.22;;;-4.62;100.00
48976;BME280;34791;52.752;8.346;2023-03-01T04:02:44;146266.94;;;-4.68;100.00
48976;BME280;34791;52.752;8.346;2023-03-01T04:05:11;146265.66;;;-4.69;100.00
48976;BME280;34791;52.752;8.346;2023-03-01T04:07:37;146236.28;;;-4.81;100.00
48976;BME280;34791;52.752;8.346;2023-03-01T04:10:08;146231.19;;;-4.83;100.00
48976;BME280;34791;52.752;8.346;2023-03-01T04:12:34;146241.38;;;-4.79;100.00
48976;BME280;34791;52.752;8.346;2023-03-01T04:15:00;146236.28;;;-4.81;100.00
48976;BME280;34791;52.752;8.346;2023-03-01T04:17:26;146292.47;;;-4.58;100.00
48976;BME280;34791;52.752;8.346;2023-03-01T04:19:52;146292.47;;;-4.58;100.00
48976;BME280;34791;52.752;8.346;2023-03-01T04:22:18;146272.03;;;-4.66;100.00
48976;BME280;34791;52.752;8.346;2023-03-01T04:24:44;146272.03;;;-4.66;100.00
48976;BME280;34791;52.752;8.346;2023-03-01T04:27:10;146279.69;;;-4.63;100.00
48976;BME280;34791;52.752;8.346;2023-03-01T04:29:36;146318.03;;;-4.48;100.00
48976;BME280;34791;52.752;8.346;2023-03-01T04:32:01;146325.69;;;-4.45;100.00
48976;BME280;34791;52.752;8.346;2023-03-01T04:34:28;146318.03;;;-4.48;100.00
48976;BME280;34791;52.752;8.346;2023-03-01T04:36:53;146315.44;;;-4.49;100.00
48976;BME280;34791;52.752;8.346;2023-03-01T04:39:19;146266.94;;;-4.68;100.00
48976;BME280;34791;52.752;8.346;2023-03-01T04:41:44;146254.13;;;-4.74;100.00
48976;BME280;34791;52.752;8.346;2023-03-01T04:44:09;146236.28;;;-4.81;100.00
48976;BME280;34791;52.752;8.346;2023-03-01T04:46:35;146272.03;;;-4.66;100.00
48976;BME280;34791;52.752;8.346;2023-03-01T04:49:02;146220.94;;;-4.87;100.00
48976;BME280;34791;52.752;8.346;2023-03-01T04:51:28;146210.72;;;-4.91;100.00
48976;BME280;34791;52.752;8.346;2023-03-01T04:53:53;146220.94;;;-4.87;100.00
48976;BME280;34791;52.752;8.346;2023-03-01T04:56:19;146251.56;;;-4.75;100.00
48976;BME280;34791;52.752;8.346;2023-03-01T04:58:45;146243.94;;;-4.78;100.00
48976;BME280;34791;52.752;8.346;2023-03-01T05:01:16;146249.03;;;-4.76;100.00
48976;BME280;34791;52.752;8.346;2023-03-01T05:03:43;146265.66;;;-4.69;100.00
48976;BME280;34791;52.752;8.346;2023-03-01T05:06:10;146289.94;;;-4.59;100.00
48976;BME280;34791;52.752;8.346;2023-03-01T05:08:37;146314.16;;;-4.50;100.00
48976;BME280;34791;52.752;8.346;2023-03-01T05:11:03;146297.59;;;-4.56;100.00
48976;BME280;34791;52.752;8.346;2023-03-01T05:13:28;146278.41;;;-4.64;100.00
48976;BME280;34791;52.752;8.346;2023-03-01T05:15:59;146264.38;;;-4.69;100.00
48976;BME280;34791;52.752;8.346;2023-03-01T05:18:26;146312.88;;;-4.50;100.00
48976;BME280;34791;52.752;8.346;2023-03-01T05:20:53;146298.84;;;-4.56;100.00
48976;BME280;34791;52.752;8.346;2023-03-01T05:23:22;146287.34;;;-4.60;100.00
48976;BME280;34791;52.752;8.346;2023-03-01T05:25:48;146266.94;;;-4.68;100.00
48976;BME280;34791;52.752;8.346;2023-03-01T05:28:15;146277.13;;;-4.64;100.00
48976;BME280;34791;52.752;8.346;2023-03-01T05:30:41;146259.28;;;-4.72;100.00
48976;BME280;34791;52.752;8.346;2023-03-01T05:33:08;146274.59;;;-4.65;100.00
48976;BME280;34791;52.752;8.346;2023-03-01T05:35:42;146279.69;;;-4.63;100.00
48976;BME280;34791;52.752;8.346;2023-03-01T05:38:09;146256.69;;;-4.73;100.00
48976;BME280;34791;52.752;8.346;2023-03-01T05:40:39;146263.09;;;-4.70;100.00
48976;BME280;34791;52.752;8.346;2023-03-01T05:43:04;146266.94;;;-4.68;100.00
48976;BME280;34791;52.752;8.346;2023-03-01T05:45:30;146217.09;;;-4.88;100.00
48976;BME280;34791;52.752;8.346;2023-03-01T05:47:58;146228.63;;;-4.84;100.00
48976;BME280;34791;52.752;8.346;2023-03-01T05:50:26;146238.81;;;-4.80;100.00
48976;BME280;34791;52.752;8.346;2023-03-01T05:53:02;146238.81;;;-4.80;100.00
48976;BME280;34791;52.752;8.346;2023-03-01T05:55:31;146250.31;;;-4.75;100.00
48976;BME280;34791;52.752;8.346;2023-03-01T05:58:04;146272.03;;;-4.66;100.00
48976;BME280;34791;52.752;8.346;2023-03-01T06:00:30;146306.50;;;-4.53;100.00
48976;BME280;34791;52.752;8.346;2023-03-01T06:02:56;146296.31;;;-4.57;100.00
48976;BME280;34791;52.752;8.346;2023-03-01T06:05:22;146263.09;;;-4.70;100.00
48976;BME280;34791;52.752;8.346;2023-03-01T06:07:48;146321.88;;;-4.47;100.00
48976;BME280;34791;52.752;8.346;2023-03-01T06:10:15;146328.25;;;-4.44;100.00
48976;BME280;34791;52.752;8.346;2023-03-01T06:12:42;146307.78;;;-4.52;100.00
48976;BME280;34791;52.752;8.346;2023-03-01T06:15:09;146261.84;;;-4.70;100.00
48976;BME280;34791;52.752;8.346;2023-03-01T06:17:36;146245.19;;;-4.77;100.00
48976;BME280;34791;52.752;8.346;2023-03-01T06:20:10;146258.00;;;-4.72;100.00
48976;BME280;34791;52.752;8.346;2023-03-01T06:22:36;146269.47;;;-4.67;100.00
48976;BME280;34791;52.752;8.346;2023-03-01T06:25:02;146282.22;;;-4.62;100.00
48976;BME280;34791;52.752;8.346;2023-03-01T06:27:27;146307.78;;;-4.52;100.00
48976;BME280;34791;52.752;8.346;2023-03-01T06:29:53;146330.78;;;-4.43;100.00
48976;BME280;34791;52.752;8.346;2023-03-01T06:32:18;146351.25;;;-4.35;100.00
48976;BME280;34791;52.752;8.346;2023-03-01T06:34:44;146379.34;;;-4.24;100.00
48976;BME280;34791;52.752;8.346;2023-03-01T06:37:10;146394.66;;;-4.18;100.00
48976;BME280;34791;52.752;8.346;2023-03-01T06:39:35;146430.44;;;-4.03;100.00
48976;BME280;34791;52.752;8.346;2023-03-01T06:42:00;146454.72;;;-3.94;100.00
48976;BME280;34791;52.752;8.346;2023-03-01T06:44:26;146479.03;;;-3.84;100.00
48976;BME280;34791;52.752;8.346;2023-03-01T06:46:52;146507.16;;;-3.73;100.00
48976;BME280;34791;52.752;8.346;2023-03-01T06:49:17;146559.53;;;-3.52;100.00
48976;BME280;34791;52.752;8.346;2023-03-01T06:51:44;146750.16;;;-2.76;100.00
48976;BME280;34791;52.752;8.346;2023-03-01T06:54:09;146910.16;;;-2.13;100.00
48976;BME280;34791;52.752;8.346;2023-03-01T06:56:35;147116.38;;;-1.31;100.00
48976;BME280;34791;52.752;8.346;2023-03-01T06:59:01;147375.31;;;-0.28;100.00
48976;BME280;34791;52.752;8.346;2023-03-01T07:01:28;147481.81;;;0.14;100.00
48976;BME280;34791;52.752;8.346;2023-03-01T07:03:53;147465.13;;;0.08;100.00
48976;BME280;34791;52.752;8.346;2023-03-01T07:06:19;147612.72;;;0.66;100.00
48976;BME280;34791;52.752;8.346;2023-03-01T07:08:44;147840.03;;;1.56;100.00
48976;BME280;34791;52.752;8.346;2023-03-01T07:11:10;147939.00;;;1.95;100.00
48976;BME280;34791;52.752;8.346;2023-03-01T07:13:35;148066.28;;;2.46;100.00
48976;BME280;34791;52.752;8.346;2023-03-01T07:16:01;148160.19;;;2.83;100.00
48976;BME280;34791;52.752;8.346;2023-03-01T07:18:26;148038.00;;;2.34;100.00
48976;BME280;34791;52.752;8.346;2023-03-01T07:20:51;147922.28;;;1.89;100.00
48976;BME280;34791;52.752;8.346;2023-03-01T07:23:17;148128.00;;;2.70;100.00
48976;BME280;34791;52.752;8.346;2023-03-01T07:25:42;147991.69;;;2.16;100.00
48976;BME280;34791;52.752;8.346;2023-03-01T07:28:08;148120.31;;;2.67;100.00
48976;BME280;34791;52.752;8.346;2023-03-01T07:30:33;148228.34;;;3.10;100.00
48976;BME280;34791;52.752;8.346;2023-03-01T07:32:59;148229.63;;;3.10;100.00
48976;BME280;34791;52.752;8.346;2023-03-01T07:35:27;148416.25;;;3.84;100.00
48976;BME280;34791;52.752;8.346;2023-03-01T07:37:53;148462.66;;;4.02;100.00
48976;BME280;34791;52.752;8.346;2023-03-01T07:40:18;148423.97;;;3.87;100.00
48976;BME280;34791;52.752;8.346;2023-03-01T07:42:44;148565.66;;;4.43;100.00
48976;BME280;34791;52.752;8.346;2023-03-01T07:45:12;148784.75;;;5.29;100.00
48976;BME280;34791;52.752;8.346;2023-03-01T07:47:41;148704.84;;;4.98;100.00
48976;BME280;34791;52.752;8.346;2023-03-01T07:50:07;148676.50;;;4.87;100.00
48976;BME280;34791;52.752;8.346;2023-03-01T07:52:32;148746.09;;;5.14;100.00
48976;BME280;34791;52.752;8.346;2023-03-01T07:54:57;149109.91;;;6.58;100.00
48976;BME280;34791;52.752;8.346;2023-03-01T07:57:23;148984.72;;;6.08;100.00
48976;BME280;34791;52.752;8.346;2023-03-01T07:59:48;149089.25;;;6.50;100.00
48976;BME280;34791;52.752;8.346;2023-03-01T08:02:14;149387.56;;;7.67;100.00
48976;BME280;34791;52.752;8.346;2023-03-01T08:04:40;149329.41;;;7.44;100.00
48976;BME280;34791;52.752;8.346;2023-03-01T08:07:06;149556.81;;;8.34;100.00
48976;BME280;34791;52.752;8.346;2023-03-01T08:09:34;149528.38;;;8.22;100.00
48976;BME280;34791;52.752;8.346;2023-03-01T08:12:00;149812.97;;;9.34;100.00
48976;BME280;34791;52.752;8.346;2023-03-01T08:14:25;150042.13;;;10.24;100.00
48976;BME280;34791;52.752;8.346;2023-03-01T08:16:51;149944.97;;;9.86;100.00
48976;BME280;34791;52.752;8.346;2023-03-01T08:19:17;149987.66;;;10.03;100.00
48976;BME280;34791;52.752;8.346;2023-03-01T08:21:42;149851.78;;;9.50;100.00
48976;BME280;34791;52.752;8.346;2023-03-01T08:24:08;149939.81;;;9.84;100.00
48976;BME280;34791;52.752;8.346;2023-03-01T08:26:35;150001.94;;;10.09;100.00
48976;BME280;34791;52.752;8.346;2023-03-01T08:29:01;137064.94;;;9.79;100.00
48976;BME280;34791;52.752;8.346;2023-03-01T08:31:27;124014.34;;;10.25;100.00
48976;BME280;34791;52.752;8.346;2023-03-01T08:33:55;85149.38;;;10.14;100.00
48976;BME280;34791;52.752;8.346;2023-03-01T08:36:36;31292.81;;;9.98;100.00
48976;BME280;34791;52.752;8.346;2023-03-01T08:39:04;-13943.28;;;10.14;100.00
48976;BME280;34791;52.752;8.346;2023-03-01T08:41:29;-19424.72;;;9.89;100.00
48976;BME280;34791;52.752;8.346;2023-03-01T08:43:55;-19403.91;;;9.09;100.00
48976;BME280;34791;52.752;8.346;2023-03-01T08:46:28;-19399.69;;;8.93;100.00
48976;BME280;34791;52.752;8.346;2023-03-01T08:48:54;-19396.91;;;8.82;100.00
48976;BME280;34791;52.752;8.346;2023-03-01T08:51:20;-19401.28;;;8.99;100.00
48976;BME280;34791;52.752;8.346;2023-03-01T08:53:46;-19407.47;;;9.23;100.00
48976;BME280;34791;52.752;8.346;2023-03-01T08:56:12;-19405.63;;;9.16;100.00
48976;BME280;34791;52.752;8.346;2023-03-01T08:58:38;-19405.22;;;9.14;100.00
48976;BME280;34791;52.752;8.346;2023-03-01T09:01:12;-19411.28;;;9.37;100.00
48976;BME280;34791;52.752;8.346;2023-03-01T09:03:37;-19419.44;;;9.69;100.00
48976;BME280;34791;52.752;8.346;2023-03-01T09:06:05;-19371.72;;;7.85;100.00
48976;BME280;34791;52.752;8.346;2023-03-01T09:08:31;-19337.09;;;6.52;100.00
48976;BME280;34791;52.752;8.346;2023-03-01T09:11:01;-19310.13;;;5.48;100.00
48976;BME280;34791;52.752;8.346;2023-03-01T09:13:27;-19296.63;;;4.96;100.00
48976;BME280;34791;52.752;8.346;2023-03-01T09:15:56;-19289.59;;;4.69;100.00
48976;BME280;34791;52.752;8.346;2023-03-01T09:18:21;-19282.06;;;4.40;100.00
48976;BME280;34791;52.752;8.346;2023-03-01T09:20:47;-19282.31;;;4.41;100.00
48976;BME280;34791;52.752;8.346;2023-03-01T09:23:12;-19279.00;;;4.28;100.00
48976;BME280;34791;52.752;8.346;2023-03-01T09:25:37;-19277.56;;;4.23;100.00
48976;BME280;34791;52.752;8.346;2023-03-01T09:28:03;-19277.03;;;4.21;100.00
48976;BME280;34791;52.752;8.346;2023-03-01T09:30:28;-6790.47;;;4.23;100.00
48976;BME280;34791;52.752;8.346;2023-03-01T09:32:56;12518.00;;;4.19;100.00
48976;BME280;34791;52.752;8.346;2023-03-01T09:35:21;9936.22;;;4.16;100.00
48976;BME280;34791;52.752;8.346;2023-03-01T09:37:48;16391.47;;;4.14;100.00
48976;BME280;34791;52.752;8.346;2023-03-01T09:40:18;29667.19;;;4.18;100.00
48976;BME280;34791;52.752;8.346;2023-03-01T09:43:01;42344.78;;;4.20;100.00
48976;BME280;34791;52.752;8.346;2023-03-01T09:45:38;59652.88;;;4.24;100.00
48976;BME280;34791;52.752;8.346;2023-03-01T09:48:06;64241.09;;;4.26;100.00
48976;BME280;34791;52.752;8.346;2023-03-01T09:50:39;75069.69;;;4.21;100.00
48976;BME280;34791;52.752;8.346;2023-03-01T09:53:12;80669.75;;;4.25;100.00
48976;BME280;34791;52.752;8.346;2023-03-01T09:55:55;85959.50;;;4.36;100.00
48976;BME280;34791;52.752;8.346;2023-03-01T10:07:32;63605.75;;;4.44;100.00
48976;BME280;34791;52.752;8.346;2023-03-01T10:09:51;46263.19;;;4.30;100.00
48976;BME280;34791;52.752;8.346;2023-03-01T10:12:19;50514.88;;;4.41;100.00
48976;BME280;34791;52.752;8.346;2023-03-01T10:15:02;49873.38;;;4.54;100.00
48976;BME280;34791;52.752;8.346;2023-03-01T10:17:39;40744.13;;;4.57;100.00
48976;BME280;34791;52.752;8.346;2023-03-01T10:22:44;22554.53;;;4.57;100.00
48976;BME280;34791;52.752;8.346;2023-03-01T10:25:17;12526.81;;;4.53;100.00
48976;BME280;34791;52.752;8.346;2023-03-01T10:27:52;15757.38;;;4.52;100.00
48976;BME280;34791;52.752;8.346;2023-03-01T10:30:26;20286.59;;;4.54;100.00
48976;BME280;34791;52.752;8.346;2023-03-01T10:32:56;29044.03;;;4.66;100.00
48976;BME280;34791;52.752;8.346;2023-03-01T10:35:28;31974.44;;;4.79;100.00
48976;BME280;34791;52.752;8.346;2023-03-01T10:37:59;27430.88;;;4.85;100.00
48976;BME280;34791;52.752;8.346;2023-03-01T10:40:27;21592.81;;;4.82;100.00
48976;BME280;34791;52.752;8.346;2023-03-01T10:42:53;19002.09;;;4.82;100.00
48976;BME280;34791;52.752;8.346;2023-03-01T10:45:36;19002.09;;;4.82;100.00
48976;BME280;34791;52.752;8.346;2023-03-01T10:48:23;17711.00;;;4.92;100.00
48976;BME280;34791;52.752;8.346;2023-03-01T10:51:06;20307.03;;;5.07;100.00
48976;BME280;34791;52.752;8.346;2023-03-01T10:56:10;6727.66;;;5.05;100.00
48976;BME280;34791;52.752;8.346;2023-03-01T10:58:39;-10005.78;;;4.97;100.00
48976;BME280;34791;52.752;8.346;2023-03-01T11:01:06;-8721.78;;;4.97;100.00
48976;BME280;34791;52.752;8.346;2023-03-01T11:06:37;-4545.72;;;5.29;100.00
48976;BME280;34791;52.752;8.346;2023-03-01T11:11:40;-19304.69;;;5.27;100.00
48976;BME280;34791;52.752;8.346;2023-03-01T11:14:20;-19307.47;;;5.38;100.00
48976;BME280;34791;52.752;8.346;2023-03-01T11:16:48;-19304.84;;;5.27;100.00
48976;BME280;34791;52.752;8.346;2023-03-01T11:19:19;-19305.09;;;5.28;100.00
48976;BME280;34791;52.752;8.346;2023-03-01T11:24:40;-19311.72;;;5.54;100.00
48976;BME280;34791;52.752;8.346;2023-03-01T11:27:32;-19313.69;;;5.62;100.00
48976;BME280;34791;52.752;8.346;2023-03-01T11:30:06;-19317.66;;;5.77;100.00
48976;BME280;34791;52.752;8.346;2023-03-01T11:32:40;-19321.25;;;5.91;100.00
48976;BME280;34791;52.752;8.346;2023-03-01T11:35:27;-17726.88;;;6.03;100.00
48976;BME280;34791;52.752;8.346;2023-03-01T11:38:24;-17750.38;;;6.07;100.00
48976;BME280;34791;52.752;8.346;2023-03-01T11:46:35;-19322.84;;;5.97;100.00
48976;BME280;34791;52.752;8.346;2023-03-01T11:58:01;-19329.97;;;6.24;100.00
48976;BME280;34791;52.752;8.346;2023-03-01T12:03:57;1580.25;;;6.39;100.00
48976;BME280;34791;52.752;8.346;2023-03-01T12:06:56;-2936.38;;;6.36;100.00
48976;BME280;34791;52.752;8.346;2023-03-01T12:09:37;934.78;;;6.41;100.00
48976;BME280;34791;52.752;8.346;2023-03-01T12:26:11;54325.88;;;6.70;100.00
48976;BME280;34791;52.752;8.346;2023-03-01T12:29:37;56291.88;;;6.67;100.00
48976;BME280;34791;52.752;8.346;2023-03-01T12:32:05;57267.88;;;6.58;100.00
48976;BME280;34791;52.752;8.346;2023-03-01T12:50:52;41565.31;;;6.88;100.00
48976;BME280;34791;52.752;8.346;2023-03-01T12:55:50;36021.31;;;7.04;100.00
48976;BME280;34791;52.752;8.346;2023-03-01T13:06:40;-19413.13;;;9.45;100.00
48976;BME280;34791;52.752;8.346;2023-03-01T13:09:19;-19413.91;;;9.48;100.00
48976;BME280;34791;52.752;8.346;2023-03-01T13:11:48;-19414.97;;;9.52;100.00
48976;BME280;34791;52.752;8.346;2023-03-01T13:16:45;-19423.66;;;9.85;100.00
48976;BME280;34791;52.752;8.346;2023-03-01T13:19:29;-19429.19;;;10.07;100.00
48976;BME280;34791;52.752;8.346;2023-03-01T13:21:58;-19427.34;;;9.99;100.00
48976;BME280;34791;52.752;8.346;2023-03-01T13:32:37;-19431.56;;;10.16;100.00
48976;BME280;34791;52.752;8.346;2023-03-01T13:37:40;-19427.63;;;10.01;100.00
48976;BME280;34791;52.752;8.346;2023-03-01T13:42:43;-19425.78;;;9.93;100.00
48976;BME280;34791;52.752;8.346;2023-03-01T13:45:39;-19435.25;;;10.30;100.00
48976;BME280;34791;52.752;8.346;2023-03-01T13:48:11;-19426.31;;;9.95;100.00
48976;BME280;34791;52.752;8.346;2023-03-01T13:51:10;-19426.16;;;9.95;100.00
48976;BME280;34791;52.752;8.346;2023-03-01T13:53:41;-19415.22;;;9.53;100.00
48976;BME280;34791;52.752;8.346;2023-03-01T13:56:14;-19415.91;;;9.55;100.00
48976;BME280;34791;52.752;8.346;2023-03-01T13:58:53;-19421.56;;;9.77;100.00
48976;BME280;34791;52.752;8.346;2023-03-01T14:03:53;-19413.78;;;9.47;100.00
48976;BME280;34791;52.752;8.346;2023-03-01T14:06:25;-19415.75;;;9.55;100.00
48976;BME280;34791;52.752;8.346;2023-03-01T14:09:22;-19409.97;;;9.32;100.00
48976;BME280;34791;52.752;8.346;2023-03-01T14:19:32;-19406.94;;;9.21;100.00
48976;BME280;34791;52.752;8.346;2023-03-01T14:22:13;-19408.66;;;9.27;100.00
48976;BME280;34791;52.752;8.346;2023-03-01T14:24:57;-19415.63;;;9.54;100.00
48976;BME280;34791;52.752;8.346;2023-03-01T14:27:26;-19417.09;;;9.60;100.00
48976;BME280;34791;52.752;8.346;2023-03-01T14:30:00;-19411.03;;;9.36;100.00
48976;BME280;34791;52.752;8.346;2023-03-01T14:32:30;-19408.50;;;9.27;100.00
48976;BME280;34791;52.752;8.346;2023-03-01T14:34:58;-19406.53;;;9.19;100.00
48976;BME280;34791;52.752;8.346;2023-03-01T14:37:31;-19405.22;;;9.14;100.00
48976;BME280;34791;52.752;8.346;2023-03-01T14:39:58;-19398.91;;;8.90;100.00
48976;BME280;34791;52.752;8.346;2023-03-01T14:42:27;-19393.50;;;8.69;100.00
48976;BME280;34791;52.752;8.346;2023-03-01T14:44:55;-19399.03;;;8.90;100.00
48976;BME280;34791;52.752;8.346;2023-03-01T14:47:28;-19396.38;;;8.80;100.00
48976;BME280;34791;52.752;8.346;2023-03-01T14:49:59;-19399.81;;;8.93;100.00
48976;BME280;34791;52.752;8.346;2023-03-01T14:52:34;-19397.31;;;8.84;100.00
48976;BME280;34791;52.752;8.346;2023-03-01T14:55:02;-19394.69;;;8.73;100.00
48976;BME280;34791;52.752;8.346;2023-03-01T14:57:28;-19391.25;;;8.60;100.00
48976;BME280;34791;52.752;8.346;2023-03-01T14:59:57;-19388.34;;;8.49;100.00
48976;BME280;34791;52.752;8.346;2023-03-01T15:02:26;-19385.84;;;8.39;100.00